2PA9 weather

Wilson Heliport
Lansdale, Pennsylvania, United States

Public forecast

Using degrees Fahrenheit for public forecast. Weather courtesy of forecast.io.

METAR (pilot weather report)

Closest report is Wings Field, 4.1 nm (7.6 km) SSE. Retrieved 2019/07/21 01:35 UTC (6 minutes ago):

KLOM 210135Z AUTO 22005KT 10SM CLR 31/25 A2985 RMK AO2 T03050255

TAF (pilot weather forecast)

Forecast is more than 12 hours old.

Closest forecast is Northeast Philadelphia Airport, 15.0 nm (27.9 km) ESE. Retrieved 2019/07/20 00:36 UTC (1 day ago):

TAF KPNE 202334Z 2100/2124 26010KT P6SM SCT040 FM210300 25005KT P6SM SCT090 FM211200 29007KT P6SM SCT120 FM211700 27011G18KT P6SM SCT040 FM212300 27010KT P6SM SCT040